EGBJ METAR and TAF | Updated Today

EGBJ METAR

Gloucestershire Airport

Gloucestershire Airport (EGBJ) hasn't published a METAR.
We found the following current weather conditions for Churchdown from other sources.

Gloucestershire Airport (EGBJ) METAR

  • Weather conditions right now at EGBJ:
  • Present conditions: Clouds
  • Clouds: Overcast clouds
  • Cloud cover: 100%
  • Wind: 196 at 17kts
  • Temperature: 4 celsius
  • Feels like: -1.5 celsius
  • Pressure: 1009mb
  • Humidity: 86%


Useful to know...

EGBJ TAF

Gloucestershire Airport

TAF EGBJ 051405Z 0515/0519 32012KT 9999 SCT020
Observation time: 17:29 hr. ago
Need help? Read our tutorial on how to read TAFs or read the parsed version below.

Parsed version of TAF for Gloucestershire Airport (EGBJ)

  • From 05 December at 15:00 UTC, to day 05 of the month at 19:00 UTC
  • Clouds: Scattered at 610 meters
  • Visibility: Greater than 10 km
  • Wind: 320 degrees at 12